Time;durP1;ratioP1;P1;durP2;ratioP2;P2;SDS_P1;SDS_P2;PMS_P1;PMS_P2;Temp;Humidity;BMP_temperature;BMP_pressure;BME280_temperature;BME280_humidity;BME280_pressure;Samples;Min_cycle;Max_cycle;Signal;HPM_P1;HPM_P2
2023/10/02 00:01:21;;;;;;;38.72;17.35;;;16.20;99.90;;;;;;5044487;28;20052;-70
2023/10/02 00:04:15;;;;;;;34.58;16.02;;;16.20;99.90;;;;;;5044627;28;20478;-69
2023/10/02 00:06:36;;;;;;;38.80;18.42;;;16.10;99.90;;;;;;5043105;28;20029;-69
2023/10/02 00:09:05;;;;;;;36.90;17.17;;;16.10;99.90;;;;;;5043124;28;20029;-70
2023/10/02 00:11:41;;;;;;;43.10;18.33;;;16.20;99.90;;;;;;5044450;28;20049;-70
2023/10/02 00:14:27;;;;;;;36.97;18.35;;;16.20;99.90;;;;;;5044843;28;20029;-72
2023/10/02 00:17:00;;;;;;;43.33;19.50;;;16.20;99.90;;;;;;5044294;28;20076;-71
2023/10/02 00:19:45;;;;;;;44.78;18.35;;;16.20;99.90;;;;;;5044259;28;20096;-71
2023/10/02 00:25:27;;;;;;;40.25;17.90;;;16.20;99.90;;;;;;5002242;28;20479;-72
2023/10/02 00:27:54;;;;;;;36.95;17.52;;;16.20;99.90;;;;;;5037049;28;20037;-70
2023/10/02 00:30:38;;;;;;;38.75;18.08;;;16.20;99.90;;;;;;5043930;28;20022;-73
2023/10/02 00:33:08;;;;;;;40.47;18.80;;;16.20;99.90;;;;;;5022892;28;20140;-71
2023/10/02 00:35:50;;;;;;;43.40;19.65;;;16.20;99.90;;;;;;5023902;28;20035;-70
2023/10/02 00:38:15;;;;;;;41.53;19.50;;;16.20;99.90;;;;;;5043638;28;20029;-73
2023/10/02 00:40:41;;;;;;;40.05;19.42;;;16.20;99.90;;;;;;5026501;28;20039;-71
2023/10/02 00:46:23;;;;;;;43.30;19.90;;;16.20;99.90;;;;;;5001897;28;20054;-71
2023/10/02 00:48:50;;;;;;;40.22;19.85;;;16.20;99.90;;;;;;5001701;28;20050;-72
2023/10/02 00:51:16;;;;;;;45.08;19.75;;;16.20;99.90;;;;;;5025356;28;20053;-70
2023/10/02 00:53:48;;;;;;;48.47;20.95;;;16.20;99.90;;;;;;5043618;28;20087;-69
2023/10/02 00:56:23;;;;;;;41.60;19.95;;;16.10;99.90;;;;;;5044267;28;20018;-70
2023/10/02 00:58:55;;;;;;;42.33;19.77;;;16.20;99.90;;;;;;5042523;28;20025;-71
2023/10/02 01:01:25;;;;;;;43.10;21.20;;;16.20;99.90;;;;;;5043125;28;20026;-70
2023/10/02 01:04:09;;;;;;;45.63;20.73;;;16.20;99.90;;;;;;5043706;28;20540;-71
2023/10/02 01:06:54;;;;;;;43.90;20.85;;;16.20;99.90;;;;;;5043703;28;20036;-70
2023/10/02 01:09:25;;;;;;;44.47;21.30;;;16.20;99.90;;;;;;5044042;28;20025;-71
2023/10/02 01:11:51;;;;;;;41.28;19.60;;;16.20;99.90;;;;;;5022330;28;20050;-69
2023/10/02 01:14:40;;;;;;;45.20;21.02;;;16.20;99.90;;;;;;5038297;28;20041;-71
2023/10/02 01:17:06;;;;;;;37.75;19.08;;;16.20;99.90;;;;;;5036833;28;20030;-70
2023/10/02 01:19:52;;;;;;;42.03;19.17;;;16.20;99.90;;;;;;5043964;28;20072;-70
2023/10/02 01:22:27;;;;;;;46.70;20.67;;;16.10;99.90;;;;;;5047355;28;20032;-72
2023/10/02 01:25:29;;;;;;;48.28;20.25;;;16.20;99.90;;;;;;5047604;28;20030;-72
2023/10/02 01:27:56;;;;;;;43.58;20.15;;;16.10;99.90;;;;;;5045178;28;20030;-71
2023/10/02 01:30:24;;;;;;;43.03;19.50;;;16.10;99.90;;;;;;5029714;28;20037;-70
2023/10/02 01:35:46;;;;;;;44.75;19.52;;;16.10;99.90;;;;;;5047514;28;20101;-72
2023/10/02 01:38:19;;;;;;;44.15;20.58;;;16.10;99.90;;;;;;5047730;28;20044;-70
2023/10/02 01:40:48;;;;;;;43.17;19.55;;;16.10;99.90;;;;;;5046990;28;20025;-70
2023/10/02 01:43:15;;;;;;;46.42;19.08;;;16.10;99.90;;;;;;5047213;28;20492;-72
2023/10/02 01:45:45;;;;;;;39.28;20.00;;;16.10;99.90;;;;;;5047066;28;20030;-70
2023/10/02 01:48:36;;;;;;;39.72;19.45;;;16.10;99.90;;;;;;5046981;28;20479;-70
2023/10/02 01:51:16;;;;;;;43.67;20.35;;;16.10;99.90;;;;;;5047058;28;20034;-71
2023/10/02 01:53:48;;;;;;;42.85;20.40;;;16.10;99.90;;;;;;5047463;28;20030;-70
2023/10/02 01:56:15;;;;;;;43.75;20.67;;;16.10;99.90;;;;;;5046927;28;20022;-72
2023/10/02 01:58:41;;;;;;;41.45;19.65;;;16.10;99.90;;;;;;5047211;28;20151;-70
2023/10/02 02:01:09;;;;;;;39.85;20.08;;;16.10;99.90;;;;;;5046706;28;20107;-71
2023/10/02 02:03:46;;;;;;;41.75;18.83;;;16.10;99.90;;;;;;5046477;28;20025;-69
2023/10/02 02:06:16;;;;;;;42.50;20.40;;;16.10;99.90;;;;;;5047051;28;20037;-70
2023/10/02 02:08:47;;;;;;;42.08;19.75;;;16.10;99.90;;;;;;5046378;28;20093;-68
2023/10/02 02:11:23;;;;;;;41.03;19.52;;;16.10;99.90;;;;;;5046697;28;20383;-70
2023/10/02 02:13:53;;;;;;;43.78;20.17;;;16.10;99.90;;;;;;5046670;28;20049;-71
2023/10/02 02:16:30;;;;;;;44.50;20.33;;;16.10;99.90;;;;;;5046100;28;20128;-70
2023/10/02 02:18:58;;;;;;;38.28;18.50;;;16.10;99.90;;;;;;5046707;28;20036;-70
2023/10/02 02:21:24;;;;;;;36.60;17.70;;;16.10;99.90;;;;;;5046356;28;20040;-72
2023/10/02 02:24:15;;;;;;;42.78;20.55;;;16.10;99.90;;;;;;5028316;28;20079;-71
2023/10/02 02:26:40;;;;;;;44.20;20.05;;;16.10;99.90;;;;;;5046247;28;20044;-69
2023/10/02 02:29:26;;;;;;;35.67;17.92;;;16.10;99.90;;;;;;5046094;28;20033;-70
2023/10/02 02:31:54;;;;;;;40.30;19.65;;;16.10;99.90;;;;;;5045142;28;20037;-70
2023/10/02 02:34:23;;;;;;;45.00;20.63;;;16.10;99.90;;;;;;5046505;28;20033;-70
2023/10/02 02:36:50;;;;;;;43.10;20.25;;;16.20;99.90;;;;;;5045956;28;20025;-71
2023/10/02 02:39:25;;;;;;;43.90;21.33;;;16.10;99.90;;;;;;5044940;28;20067;-72
2023/10/02 02:44:49;;;;;;;39.92;19.10;;;16.20;99.90;;;;;;5045891;28;20055;-69
2023/10/02 02:47:21;;;;;;;43.92;19.17;;;16.10;99.90;;;;;;5046077;28;20053;-71
2023/10/02 02:49:50;;;;;;;41.53;19.98;;;16.20;99.90;;;;;;5027795;28;20087;-70
2023/10/02 02:52:17;;;;;;;42.78;19.70;;;16.20;99.90;;;;;;5045908;28;20065;-71
2023/10/02 02:54:47;;;;;;;45.35;20.48;;;16.10;99.90;;;;;;5025659;28;20064;-69
2023/10/02 02:57:25;;;;;;;45.92;20.98;;;16.10;99.90;;;;;;5027164;28;20032;-71
2023/10/02 02:59:55;;;;;;;41.60;18.45;;;16.20;99.90;;;;;;5018660;28;20030;-71
2023/10/02 03:02:36;;;;;;;40.10;19.50;;;16.20;99.90;;;;;;5036417;28;20033;-71
2023/10/02 03:05:03;;;;;;;45.30;21.05;;;16.20;99.90;;;;;;5037982;28;20079;-71
2023/10/02 03:07:36;;;;;;;45.55;20.85;;;16.20;99.90;;;;;;5041973;28;20026;-71
2023/10/02 03:10:02;;;;;;;42.22;20.25;;;16.20;99.90;;;;;;5040683;28;20022;-72
2023/10/02 03:12:28;;;;;;;44.85;20.08;;;16.10;99.90;;;;;;5038605;28;20048;-68
2023/10/02 03:14:55;;;;;;;41.08;19.98;;;16.20;99.90;;;;;;5039955;28;20448;-72
2023/10/02 03:17:30;;;;;;;41.13;19.08;;;16.20;99.90;;;;;;5021806;28;20112;-71
2023/10/02 03:20:06;;;;;;;45.92;20.17;;;16.20;99.90;;;;;;5039212;28;20046;-72
2023/10/02 03:22:33;;;;;;;46.80;20.38;;;16.20;99.90;;;;;;5038455;28;20026;-72
2023/10/02 03:25:25;;;;;;;41.78;20.08;;;16.20;99.90;;;;;;5037110;28;20094;-70
2023/10/02 03:27:48;;;;;;;44.70;20.55;;;16.20;99.90;;;;;;5038907;28;20618;-71
2023/10/02 03:30:35;;;;;;;48.60;20.95;;;16.10;99.90;;;;;;5036649;28;20021;-70
2023/10/02 03:33:20;;;;;;;45.55;19.70;;;16.10;99.90;;;;;;5037066;28;20022;-70
2023/10/02 03:35:58;;;;;;;37.70;18.08;;;16.10;99.90;;;;;;5038266;28;20036;-71
2023/10/02 03:38:33;;;;;;;43.58;20.67;;;16.10;99.90;;;;;;5025028;28;20026;-73
2023/10/02 03:41:01;;;;;;;45.22;20.45;;;16.10;99.90;;;;;;5036725;28;20025;-69
2023/10/02 03:43:42;;;;;;;44.20;20.50;;;16.10;99.90;;;;;;5026213;28;20552;-71
2023/10/02 03:46:13;;;;;;;43.40;20.63;;;16.10;99.90;;;;;;5045797;28;20515;-71
2023/10/02 03:48:39;;;;;;;44.22;20.52;;;16.10;99.90;;;;;;5044710;28;20079;-70
2023/10/02 03:51:08;;;;;;;47.72;20.30;;;16.10;99.90;;;;;;5043707;28;20049;-70
2023/10/02 03:53:37;;;;;;;45.65;21.02;;;16.10;99.90;;;;;;5026761;28;20033;-71
2023/10/02 03:58:52;;;;;;;47.90;20.27;;;16.10;99.90;;;;;;5044171;28;20033;-71
2023/10/02 04:01:31;;;;;;;40.25;20.27;;;16.10;99.90;;;;;;5042811;28;20097;-71
2023/10/02 04:06:42;;;;;;;48.80;19.95;;;16.10;99.90;;;;;;5045030;28;20099;-71
2023/10/02 04:09:28;;;;;;;43.78;19.85;;;16.10;99.90;;;;;;5043527;28;20025;-71
2023/10/02 04:11:54;;;;;;;49.25;19.13;;;16.10;99.90;;;;;;5044302;28;20045;-72
2023/10/02 04:14:38;;;;;;;36.47;18.13;;;16.10;99.90;;;;;;5044545;28;20036;-70
2023/10/02 04:19:49;;;;;;;41.70;19.13;;;16.10;99.90;;;;;;5044380;28;20037;-70
2023/10/02 04:22:22;;;;;;;42.58;18.60;;;16.10;99.90;;;;;;5044117;28;20032;-70
2023/10/02 04:24:58;;;;;;;37.00;17.52;;;16.10;99.90;;;;;;5044065;28;20482;-69
2023/10/02 04:32:49;;;;;;;42.03;19.38;;;16.20;99.90;;;;;;5040682;28;20025;-69
2023/10/02 04:38:07;;;;;;;41.40;18.67;;;16.20;99.90;;;;;;5043735;28;20048;-70
2023/10/02 04:40:55;;;;;;;41.67;18.10;;;16.20;99.90;;;;;;5044254;28;20025;-70
2023/10/02 04:43:19;;;;;;;45.50;19.30;;;16.20;99.90;;;;;;5043660;28;20072;-71
2023/10/02 04:45:52;;;;;;;41.65;18.20;;;16.20;99.90;;;;;;5043492;28;20029;-71
2023/10/02 04:48:26;;;;;;;38.10;18.00;;;16.20;99.90;;;;;;5044190;28;20024;-69
2023/10/02 04:50:56;;;;;;;40.00;18.17;;;16.20;99.90;;;;;;5043709;28;20056;-69
2023/10/02 04:53:25;;;;;;;41.53;17.60;;;16.20;99.90;;;;;;5025672;28;20033;-71
2023/10/02 04:56:25;;;;;;;42.17;18.60;;;16.20;99.90;;;;;;5042385;28;20085;-70
2023/10/02 04:58:49;;;;;;;42.53;19.55;;;16.20;99.90;;;;;;5040075;28;20045;-70
2023/10/02 05:02:17;;;;;;;38.45;18.17;;;16.20;99.90;;;;;;5044140;28;20018;-72
2023/10/02 05:04:18;;;;;;;41.20;18.73;;;16.20;99.90;;;;;;5040852;28;20029;-71
2023/10/02 05:06:44;;;;;;;47.25;18.52;;;16.20;99.90;;;;;;5043326;28;20022;-69
2023/10/02 05:11:53;;;;;;;43.20;19.70;;;16.20;99.90;;;;;;5043347;28;20045;-69
2023/10/02 05:14:29;;;;;;;42.22;18.48;;;16.30;99.90;;;;;;5044188;28;20028;-69
2023/10/02 05:17:17;;;;;;;43.83;19.65;;;16.30;99.90;;;;;;5041914;28;20486;-70
2023/10/02 05:20:15;;;;;;;42.53;19.17;;;16.30;99.90;;;;;;5022853;28;20049;-71
2023/10/02 05:22:37;;;;;;;43.35;18.50;;;16.30;99.90;;;;;;5026066;28;20635;-72
2023/10/02 05:25:07;;;;;;;46.47;18.88;;;16.30;99.90;;;;;;5043569;28;20076;-72
2023/10/02 05:27:38;;;;;;;41.58;19.33;;;16.30;99.90;;;;;;5027849;28;20041;-73
2023/10/02 05:30:17;;;;;;;48.65;19.90;;;16.30;99.90;;;;;;5042154;28;20029;-72
2023/10/02 05:32:43;;;;;;;44.35;18.95;;;16.30;99.90;;;;;;5043189;28;20033;-70
2023/10/02 05:37:50;;;;;;;50.50;22.00;;;16.30;99.90;;;;;;5033013;28;20034;-72
2023/10/02 05:45:39;;;;;;;48.78;20.00;;;16.30;99.90;;;;;;5041517;28;20060;-70
2023/10/02 05:50:56;;;;;;;40.80;19.17;;;16.30;99.90;;;;;;5041592;28;20037;-72
2023/10/02 05:53:29;;;;;;;41.97;18.55;;;16.30;99.90;;;;;;5038568;28;20481;-70
2023/10/02 05:58:38;;;;;;;39.92;18.48;;;16.40;99.90;;;;;;5041636;28;20034;-73
2023/10/02 06:01:06;;;;;;;41.20;18.20;;;16.30;99.90;;;;;;5042073;28;20029;-71
2023/10/02 06:03:37;;;;;;;40.10;18.10;;;16.30;99.90;;;;;;5024972;28;20049;-71
2023/10/02 06:06:17;;;;;;;37.55;17.60;;;16.30;99.90;;;;;;5044397;28;20029;-71
2023/10/02 06:08:55;;;;;;;36.53;18.02;;;16.40;99.90;;;;;;5029143;28;20048;-71
2023/10/02 06:11:25;;;;;;;42.13;18.15;;;16.30;99.90;;;;;;5044653;28;20072;-71
2023/10/02 06:13:54;;;;;;;46.72;18.63;;;16.40;99.90;;;;;;5034216;28;20492;-72
2023/10/02 06:16:24;;;;;;;45.65;19.50;;;16.40;99.90;;;;;;5046973;28;20025;-73
2023/10/02 06:19:00;;;;;;;41.95;18.50;;;16.40;99.90;;;;;;5045873;28;20041;-72
2023/10/02 06:21:27;;;;;;;46.33;18.75;;;16.40;99.90;;;;;;5021678;28;20367;-71
2023/10/02 06:23:53;;;;;;;42.45;19.02;;;16.40;99.90;;;;;;5046621;28;20045;-72
2023/10/02 06:26:19;;;;;;;40.72;16.60;;;16.40;99.90;;;;;;5046137;28;20022;-72
2023/10/02 06:28:48;;;;;;;39.15;17.23;;;16.40;99.90;;;;;;5045380;28;20029;-70
2023/10/02 06:31:30;;;;;;;43.20;18.00;;;16.40;99.90;;;;;;5044514;28;20033;-72
2023/10/02 06:33:57;;;;;;;41.80;17.95;;;16.50;99.90;;;;;;5044070;28;20030;-71
2023/10/02 06:36:22;;;;;;;41.92;17.63;;;16.50;99.90;;;;;;5027749;28;20056;-70
2023/10/02 06:38:54;;;;;;;39.55;18.08;;;16.50;99.90;;;;;;5046007;28;20025;-70
2023/10/02 06:41:20;;;;;;;45.63;18.23;;;16.50;99.90;;;;;;5045065;28;20064;-70
2023/10/02 06:43:45;;;;;;;38.25;17.38;;;16.60;99.90;;;;;;5045070;28;20033;-71
2023/10/02 06:46:15;;;;;;;39.58;17.77;;;16.70;99.90;;;;;;5031009;28;20461;-71
2023/10/02 06:48:45;;;;;;;40.00;16.58;;;16.70;99.90;;;;;;5043366;28;20111;-70
2023/10/02 06:51:13;;;;;;;42.38;17.83;;;16.80;99.90;;;;;;5043828;28;20037;-71
2023/10/02 06:53:40;;;;;;;37.22;17.23;;;16.80;99.90;;;;;;5043828;28;20029;-70
2023/10/02 06:56:07;;;;;;;38.58;17.05;;;16.90;99.90;;;;;;5044322;28;20029;-71
2023/10/02 06:58:46;;;;;;;42.53;17.30;;;16.90;99.90;;;;;;5045886;28;20029;-70
2023/10/02 07:01:13;;;;;;;39.17;16.83;;;17.00;99.90;;;;;;5042122;28;20155;-72
2023/10/02 07:03:39;;;;;;;39.10;17.77;;;17.00;99.90;;;;;;5043934;28;20657;-69
2023/10/02 07:06:08;;;;;;;36.42;16.95;;;17.00;99.90;;;;;;5045771;28;20034;-70
2023/10/02 07:08:36;;;;;;;38.28;17.05;;;17.00;99.90;;;;;;5025351;28;20112;-69
2023/10/02 07:11:10;;;;;;;39.95;17.63;;;17.10;99.90;;;;;;5044214;28;20088;-69
2023/10/02 07:13:50;;;;;;;42.88;17.38;;;17.10;99.90;;;;;;5044859;28;20030;-71
2023/10/02 07:16:22;;;;;;;40.63;17.10;;;17.10;99.90;;;;;;5044526;28;20089;-72
2023/10/02 07:18:53;;;;;;;39.22;17.60;;;17.20;99.90;;;;;;5044507;28;20029;-73
2023/10/02 07:21:22;;;;;;;39.60;17.60;;;17.30;99.90;;;;;;5045192;28;20063;-73
2023/10/02 07:23:48;;;;;;;39.75;18.02;;;17.40;99.90;;;;;;5045159;28;20083;-70
2023/10/02 07:26:19;;;;;;;46.08;18.83;;;17.40;99.90;;;;;;5043818;28;20033;-70
2023/10/02 07:28:51;;;;;;;48.03;18.75;;;17.40;99.90;;;;;;5044218;28;20101;-71
2023/10/02 07:31:21;;;;;;;39.42;17.85;;;17.50;99.90;;;;;;5043776;28;20041;-72
2023/10/02 07:33:47;;;;;;;41.90;18.02;;;17.60;99.90;;;;;;5044338;28;20033;-71
2023/10/02 07:36:16;;;;;;;36.60;16.55;;;17.60;99.90;;;;;;5027316;28;20037;-73
2023/10/02 07:38:46;;;;;;;42.08;18.60;;;17.60;99.90;;;;;;5044494;28;20025;-71
2023/10/02 07:41:25;;;;;;;43.25;18.13;;;17.80;99.90;;;;;;5027035;28;20052;-72
2023/10/02 07:43:55;;;;;;;38.13;17.30;;;17.80;99.90;;;;;;5043284;28;20037;-72
2023/10/02 07:46:22;;;;;;;39.08;17.23;;;17.90;99.90;;;;;;5044439;28;20108;-74
2023/10/02 07:48:59;;;;;;;39.45;18.48;;;18.10;99.90;;;;;;5044826;28;20029;-73
2023/10/02 07:51:36;;;;;;;36.53;17.85;;;18.20;99.90;;;;;;5028202;28;20053;-70
2023/10/02 07:54:02;;;;;;;39.67;17.90;;;18.30;99.90;;;;;;5028077;28;20132;-72
2023/10/02 07:56:29;;;;;;;38.95;18.15;;;18.50;99.90;;;;;;5044381;28;20030;-72
2023/10/02 07:58:55;;;;;;;37.92;18.00;;;18.60;99.90;;;;;;5043721;28;20029;-70
2023/10/02 08:01:27;;;;;;;36.30;16.73;;;18.70;99.90;;;;;;5033563;28;20025;-72
2023/10/02 08:03:55;;;;;;;36.20;15.40;;;18.80;99.90;;;;;;5036112;28;20056;-71
2023/10/02 08:06:22;;;;;;;34.60;15.55;;;19.00;99.90;;;;;;5038079;28;20024;-71
2023/10/02 08:11:42;;;;;;;33.80;15.80;;;19.20;99.90;;;;;;5040847;28;20079;-78
2023/10/02 08:16:59;;;;;;;31.60;15.43;;;19.30;99.90;;;;;;5040444;28;20105;-71
2023/10/02 08:19:25;;;;;;;31.40;15.15;;;19.30;99.90;;;;;;5027689;28;20482;-71
2023/10/02 08:21:53;;;;;;;35.22;16.15;;;19.20;99.90;;;;;;5041913;28;20043;-72
2023/10/02 08:24:19;;;;;;;36.42;15.93;;;19.30;99.90;;;;;;5042691;28;20025;-73
2023/10/02 08:26:44;;;;;;;32.83;15.38;;;19.30;99.90;;;;;;5025576;28;20033;-73
2023/10/02 08:29:13;;;;;;;34.40;15.90;;;19.30;99.90;;;;;;5050192;28;20029;-72
2023/10/02 08:31:48;;;;;;;32.65;14.88;;;19.40;99.90;;;;;;5042711;28;20156;-69
2023/10/02 08:34:24;;;;;;;36.53;15.02;;;19.50;99.90;;;;;;5043590;28;20144;-72
2023/10/02 08:37:07;;;;;;;30.80;13.93;;;19.50;99.90;;;;;;5026331;28;20112;-72
2023/10/02 08:39:38;;;;;;;33.73;15.53;;;19.60;99.90;;;;;;5038301;28;20426;-70
2023/10/02 08:42:11;;;;;;;33.47;15.85;;;19.60;99.90;;;;;;5044995;28;20271;-72
2023/10/02 08:44:41;;;;;;;34.50;14.63;;;19.60;99.90;;;;;;5040580;28;20037;-72
2023/10/02 08:47:25;;;;;;;29.95;14.75;;;19.60;99.90;;;;;;5034359;28;20053;-71
2023/10/02 08:50:03;;;;;;;32.70;15.15;;;19.60;99.90;;;;;;5043607;28;20025;-73
2023/10/02 08:52:38;;;;;;;29.83;14.68;;;19.60;99.90;;;;;;5042663;28;20064;-70
2023/10/02 08:55:34;;;;;;;35.05;15.73;;;19.60;99.90;;;;;;5042630;28;20167;-70
2023/10/02 08:58:16;;;;;;;36.53;16.10;;;19.60;99.90;;;;;;5043434;28;20022;-71
2023/10/02 09:03:42;;;;;;;35.40;15.43;;;19.80;99.90;;;;;;5049217;28;20037;-71
2023/10/02 09:06:32;;;;;;;35.10;15.57;;;19.90;99.90;;;;;;5025322;28;20047;-71
2023/10/02 09:11:41;;;;;;;34.10;15.50;;;20.00;99.90;;;;;;5039561;28;20045;-70
2023/10/02 09:14:23;;;;;;;35.95;15.38;;;20.00;99.90;;;;;;5041534;28;20037;-72
2023/10/02 09:17:16;;;;;;;35.72;15.48;;;20.00;99.90;;;;;;5042075;28;20022;-71
2023/10/02 09:20:03;;;;;;;33.92;15.40;;;20.10;99.90;;;;;;5041575;28;20017;-72
2023/10/02 09:22:34;;;;;;;33.97;15.77;;;20.20;99.90;;;;;;5042711;28;20036;-68
2023/10/02 09:25:09;;;;;;;35.60;15.45;;;20.30;99.90;;;;;;5042068;28;20021;-70
2023/10/02 09:27:41;;;;;;;34.58;15.10;;;20.40;99.90;;;;;;5042698;28;20022;-69
2023/10/02 09:30:21;;;;;;;41.10;16.35;;;20.50;99.90;;;;;;5029393;28;20461;-71
2023/10/02 09:32:51;;;;;;;34.58;15.27;;;20.50;99.90;;;;;;5025724;28;20493;-76
2023/10/02 09:35:40;;;;;;;36.30;16.48;;;20.50;99.90;;;;;;5041826;28;20041;-77
2023/10/02 09:38:15;;;;;;;32.60;15.27;;;20.50;99.90;;;;;;5042467;28;20063;-77
2023/10/02 09:40:54;;;;;;;37.63;16.48;;;20.60;99.90;;;;;;5038702;28;20056;-71
2023/10/02 09:43:25;;;;;;;37.08;15.23;;;20.60;99.90;;;;;;5024304;28;20367;-70
2023/10/02 09:46:35;;;;;;;36.20;15.93;;;20.70;99.90;;;;;;5045346;28;20083;-73
2023/10/02 09:48:46;;;;;;;29.13;14.63;;;20.70;99.90;;;;;;5040543;28;20064;-71
2023/10/02 09:51:25;;;;;;;38.88;16.00;;;20.80;99.90;;;;;;5047296;28;20402;-71
2023/10/02 09:54:28;;;;;;;31.85;15.45;;;20.80;99.90;;;;;;5028183;28;20053;-71
2023/10/02 09:57:12;;;;;;;34.55;15.23;;;20.80;99.90;;;;;;5044186;28;20037;-70
2023/10/02 09:59:46;;;;;;;31.65;14.80;;;20.90;99.90;;;;;;5044022;28;20029;-72
2023/10/02 10:10:58;;;;;;;38.92;16.30;;;21.20;99.90;;;;;;5042660;28;20033;-73
2023/10/02 10:13:32;;;;;;;32.13;15.52;;;21.20;99.90;;;;;;5041244;28;20115;-73
2023/10/02 10:16:18;;;;;;;35.17;15.48;;;21.30;99.90;;;;;;5040236;28;20025;-72
2023/10/02 10:21:56;;;;;;;33.85;14.60;;;21.50;99.90;;;;;;5040529;28;20037;-71
2023/10/02 10:24:35;;;;;;;39.22;16.10;;;21.60;99.90;;;;;;5027115;28;20029;-73
2023/10/02 10:27:02;;;;;;;32.85;13.90;;;21.70;99.90;;;;;;5044893;28;20043;-70
2023/10/02 10:29:41;;;;;;;33.85;14.65;;;21.80;99.90;;;;;;5036001;28;20025;-70
2023/10/02 10:32:23;;;;;;;30.23;14.32;;;21.90;99.90;;;;;;5047493;28;20109;-70
2023/10/02 10:35:12;;;;;;;35.55;15.05;;;21.80;99.90;;;;;;5042622;28;20069;-69
2023/10/02 10:37:46;;;;;;;34.42;14.93;;;21.80;99.90;;;;;;5043687;28;20022;-70
2023/10/02 10:41:00;;;;;;;35.50;14.48;;;21.80;99.90;;;;;;5042020;28;20089;-71
2023/10/02 10:43:43;;;;;;;32.85;15.40;;;21.80;99.90;;;;;;5038806;28;20030;-76
2023/10/02 10:46:20;;;;;;;33.03;13.93;;;21.80;99.90;;;;;;5027139;28;20513;-72
2023/10/02 10:48:58;;;;;;;35.95;15.55;;;21.90;99.90;;;;;;5041754;28;20037;-68
2023/10/02 10:51:28;;;;;;;35.22;14.40;;;22.00;99.90;;;;;;5043586;28;20429;-70
2023/10/02 10:54:19;;;;;;;31.75;14.93;;;22.10;99.90;;;;;;5029352;28;20033;-75
2023/10/02 10:56:55;;;;;;;30.40;13.55;;;22.00;99.90;;;;;;5027234;28;20025;-72
2023/10/02 10:59:32;;;;;;;30.55;14.05;;;22.00;99.90;;;;;;5045780;28;20091;-72
2023/10/02 11:02:17;;;;;;;32.83;14.60;;;22.00;99.90;;;;;;5052184;28;20034;-69
2023/10/02 11:04:49;;;;;;;31.98;13.77;;;22.00;99.90;;;;;;5042804;28;20029;-72
2023/10/02 11:07:23;;;;;;;28.95;13.38;;;22.20;99.90;;;;;;5040563;28;20033;-74
2023/10/02 11:13:08;;;;;;;31.13;13.98;;;22.30;99.90;;;;;;5037356;28;20072;-75
2023/10/02 11:15:54;;;;;;;35.20;14.35;;;22.20;99.90;;;;;;5044351;28;20030;-70
2023/10/02 11:18:23;;;;;;;28.85;12.32;;;22.20;99.90;;;;;;5026755;28;20037;-71
2023/10/02 11:20:51;;;;;;;30.70;12.77;;;22.10;99.90;;;;;;5043636;28;20033;-71
2023/10/02 11:23:29;;;;;;;32.63;13.65;;;22.10;99.90;;;;;;5027044;28;20112;-71
2023/10/02 11:25:58;;;;;;;29.15;12.65;;;22.10;99.90;;;;;;5044274;28;20053;-73
2023/10/02 11:28:32;;;;;;;27.88;12.63;;;22.10;99.90;;;;;;5041296;28;20029;-72
2023/10/02 11:31:32;;;;;;;29.42;12.82;;;22.00;99.90;;;;;;5041308;28;20433;-72
2023/10/02 11:34:10;;;;;;;29.15;13.25;;;22.00;99.90;;;;;;5044838;28;20030;-72
2023/10/02 11:36:39;;;;;;;28.83;12.77;;;22.00;99.90;;;;;;5042488;28;20056;-72
2023/10/02 11:39:09;;;;;;;31.23;13.50;;;22.00;99.90;;;;;;5020387;28;20072;-75
2023/10/02 11:41:39;;;;;;;29.63;12.60;;;22.10;99.90;;;;;;5041698;28;20037;-73
2023/10/02 11:44:06;;;;;;;28.65;12.43;;;22.10;99.90;;;;;;5043029;28;20033;-74
2023/10/02 11:46:32;;;;;;;27.98;13.13;;;22.00;99.90;;;;;;5026520;28;20061;-71
2023/10/02 11:48:58;;;;;;;31.08;12.95;;;22.00;99.90;;;;;;5045008;28;20029;-71
2023/10/02 11:51:28;;;;;;;29.42;13.52;;;21.90;99.90;;;;;;5026236;28;20038;-73
2023/10/02 11:53:57;;;;;;;33.08;14.43;;;21.80;99.90;;;;;;5044424;28;20060;-73
2023/10/02 11:56:23;;;;;;;31.25;13.63;;;21.80;99.90;;;;;;5021729;28;20018;-72
2023/10/02 11:58:52;;;;;;;32.40;13.05;;;21.70;99.90;;;;;;5029786;28;20021;-73
2023/10/02 12:01:24;;;;;;;30.67;13.35;;;21.70;99.90;;;;;;5044819;28;20024;-71
2023/10/02 12:03:50;;;;;;;28.63;13.23;;;21.70;99.90;;;;;;5044865;28;20021;-73
2023/10/02 12:06:16;;;;;;;27.98;13.75;;;21.70;99.90;;;;;;5026986;28;20112;-73
2023/10/02 12:08:44;;;;;;;32.75;14.15;;;21.70;99.90;;;;;;5044634;28;20029;-73
2023/10/02 12:11:12;;;;;;;31.98;13.45;;;21.80;99.90;;;;;;5044788;28;20045;-77
2023/10/02 12:13:37;;;;;;;31.52;13.73;;;22.10;99.90;;;;;;5026380;28;20060;-71
2023/10/02 12:16:05;;;;;;;30.65;12.93;;;22.20;99.90;;;;;;5044310;28;20021;-76
2023/10/02 12:18:33;;;;;;;31.83;13.60;;;22.40;99.90;;;;;;5043924;28;20025;-72
2023/10/02 12:20:59;;;;;;;27.38;13.02;;;22.50;99.90;;;;;;5026510;28;20049;-70
2023/10/02 12:23:25;;;;;;;30.70;13.27;;;22.60;99.90;;;;;;5044244;28;20022;-73
2023/10/02 12:25:51;;;;;;;28.05;12.20;;;22.90;99.90;;;;;;5026857;28;20025;-72
2023/10/02 12:28:17;;;;;;;31.00;13.25;;;23.10;99.90;;;;;;5044003;28;20025;-73
2023/10/02 12:30:43;;;;;;;29.30;13.30;;;23.20;99.90;;;;;;5044335;28;20390;-71
2023/10/02 12:33:09;;;;;;;31.58;12.07;;;23.20;99.90;;;;;;5026032;28;20033;-68
2023/10/02 12:35:36;;;;;;;32.70;12.75;;;23.20;99.90;;;;;;5043450;28;20541;-72
2023/10/02 12:38:03;;;;;;;27.00;13.60;;;23.30;99.90;;;;;;5025263;28;20393;-73
2023/10/02 12:40:31;;;;;;;26.60;12.52;;;23.30;99.90;;;;;;5039736;28;20018;-75
2023/10/02 12:43:01;;;;;;;27.08;12.10;;;23.20;99.90;;;;;;5043559;28;20040;-67
2023/10/02 12:45:33;;;;;;;30.33;12.85;;;23.20;99.90;;;;;;5043780;28;20033;-71
2023/10/02 12:47:59;;;;;;;24.55;11.82;;;23.20;99.90;;;;;;5025988;28;20049;-73
2023/10/02 12:50:24;;;;;;;25.10;11.40;;;23.30;99.90;;;;;;5043712;28;20389;-72
2023/10/02 12:52:50;;;;;;;28.90;11.63;;;23.50;99.90;;;;;;5044156;28;20068;-73
2023/10/02 12:55:16;;;;;;;21.33;11.05;;;23.80;99.90;;;;;;5026386;28;20056;-73
2023/10/02 12:57:42;;;;;;;24.08;11.55;;;24.10;99.90;;;;;;5043595;28;20080;-72
2023/10/02 13:00:16;;;;;;;24.80;11.35;;;24.40;99.90;;;;;;5043853;28;20406;-75
2023/10/02 13:02:42;;;;;;;26.38;11.55;;;24.50;99.90;;;;;;5025225;28;20026;-74
2023/10/02 13:05:09;;;;;;;23.08;11.23;;;24.50;99.90;;;;;;5043381;28;20049;-75
2023/10/02 13:07:35;;;;;;;24.70;11.35;;;24.40;99.90;;;;;;5023868;28;20030;-72
2023/10/02 13:10:01;;;;;;;22.27;10.77;;;24.30;99.90;;;;;;5043638;28;20037;-74
2023/10/02 13:12:26;;;;;;;25.85;11.90;;;24.10;99.90;;;;;;5043698;28;20041;-77
2023/10/02 13:14:54;;;;;;;25.88;11.85;;;24.00;99.90;;;;;;5026048;28;20029;-71
2023/10/02 13:17:20;;;;;;;22.65;11.13;;;23.70;99.90;;;;;;5026568;28;20030;-75
2023/10/02 13:19:45;;;;;;;22.75;10.90;;;23.60;99.90;;;;;;5046940;28;20048;-71
2023/10/02 13:22:11;;;;;;;25.65;11.55;;;23.70;99.90;;;;;;5048025;28;20029;-71
2023/10/02 13:24:36;;;;;;;22.63;11.15;;;23.70;99.90;;;;;;5027332;28;20049;-75
2023/10/02 13:27:02;;;;;;;21.70;10.55;;;23.70;99.90;;;;;;5047191;28;20025;-70
2023/10/02 13:29:28;;;;;;;28.45;11.20;;;23.70;99.90;;;;;;5047579;28;20029;-72
2023/10/02 13:31:54;;;;;;;23.38;10.88;;;23.80;99.90;;;;;;5046923;28;20041;-72
2023/10/02 13:34:20;;;;;;;24.92;11.25;;;23.80;99.90;;;;;;5047727;28;20027;-77
2023/10/02 13:36:46;;;;;;;24.67;11.82;;;23.90;99.90;;;;;;5047756;28;20450;-77
2023/10/02 13:39:16;;;;;;;24.25;11.55;;;23.80;99.90;;;;;;5026040;28;20044;-73
2023/10/02 13:41:42;;;;;;;24.20;11.23;;;23.80;99.90;;;;;;5045980;28;20022;-71
2023/10/02 13:44:08;;;;;;;27.60;12.15;;;23.70;99.90;;;;;;5047437;28;20029;-72
2023/10/02 13:46:38;;;;;;;27.05;11.68;;;23.70;99.90;;;;;;5046505;28;20100;-71
2023/10/02 13:49:05;;;;;;;22.38;11.82;;;23.50;99.90;;;;;;5026246;28;20366;-74
2023/10/02 13:51:31;;;;;;;25.77;11.70;;;23.40;99.90;;;;;;5044141;28;20033;-69
2023/10/02 13:53:57;;;;;;;25.08;12.10;;;23.30;99.90;;;;;;5046982;28;20068;-72
2023/10/02 13:56:28;;;;;;;26.58;12.10;;;23.10;99.90;;;;;;5047252;28;20029;-72
2023/10/02 13:58:54;;;;;;;28.13;12.57;;;23.00;99.90;;;;;;5028920;28;20044;-71
2023/10/02 14:01:24;;;;;;;26.25;12.00;;;22.90;99.90;;;;;;5029132;28;20025;-72
2023/10/02 14:03:51;;;;;;;26.70;12.10;;;22.80;99.90;;;;;;5047035;28;20028;-73
2023/10/02 14:06:18;;;;;;;26.20;12.18;;;22.80;99.90;;;;;;5045961;28;20025;-73